Back to Top

Language: 

My Weather Underground Personal Weather Station Historical Data with Graphs...

Delerius Weather Station Historical Data
Daily Summary for August 18, 2017 Units:  Metric    English   Both
« Previous Day
Next Day »
Daily Weekly Monthly Yearly Custom
  High: Low: Average:
Temperature: 18.7 °C 10.8 °C 14.9 °C
Dew Point: 13.8 °C 8.7 °C 10.5 °C
Humidity: 93 % 56 % 76 %
Wind Speed: 25.7 km/h 0 km/h 13.7 km/h
Wind Gust: 43.5 km/h - -
Wind:- - WSW
Pressure: 1008 hPa 1004.3 hPa -
Precipitation: 0.25 mm    
Historical Graphs
 
 
Tabular Data for August 18, 2017
Time Temperature Dew Point Pressure Wind Wind Speed Wind Gust Humidity Rainfall Rate (Hourly) solar Conditions
00:00 14.9 °C 13.6 °C 1006.3 hPa SSE 4.8 km/h 11.3 km/h 92 % 0.76 mm 0 W/m2
00:05 14.9 °C 13.6 °C 1006.3 hPa South 4.8 km/h 11.3 km/h 92 % 0.51 mm 0 W/m2
00:10 14.9 °C 13.6 °C 1006.3 hPa South 4.8 km/h 11.3 km/h 92 % 0.25 mm 0 W/m2
00:15 14.9 °C 13.8 °C 1006.3 hPa South 4.8 km/h 9.7 km/h 93 % 0.25 mm 0 W/m2
00:20 14.9 °C 13.8 °C 1006.3 hPa South 1.6 km/h 8 km/h 93 % 0 mm 0 W/m2
00:25 14.8 °C 13.7 °C 1006.3 hPa South 1.6 km/h 9.7 km/h 93 % 0 mm 0 W/m2
00:30 14.8 °C 13.7 °C 1006.3 hPa SSW 3.2 km/h 12.9 km/h 93 % 0 mm 0 W/m2
00:31 14.8 °C 13.7 °C 1006.3 hPa SSW 3.2 km/h 12.9 km/h 93 % 0 mm 0 W/m2
00:36 14.7 °C 13.4 °C 1006.3 hPa SSW 4.8 km/h 12.9 km/h 92 % 0 mm 0 W/m2
00:41 14.6 °C 13.3 °C 1006.3 hPa SSW 3.2 km/h 11.3 km/h 92 % 0 mm 0 W/m2
00:46 14.5 °C 13.2 °C 1006.3 hPa SW 3.2 km/h 11.3 km/h 92 % 0 mm 0 W/m2
00:51 14.3 °C 12.8 °C 1006.3 hPa SW 8 km/h 19.3 km/h 91 % 0 mm 0 W/m2
00:56 14.2 °C 12.6 °C 1006 hPa SW 11.3 km/h 24.1 km/h 90 % 0 mm 0 W/m2
01:01 14.2 °C 12.4 °C 1006 hPa SSW 12.9 km/h 24.1 km/h 89 % 0 mm 0 W/m2
01:06 14.1 °C 12.3 °C 1006 hPa SSW 11.3 km/h 22.5 km/h 89 % 0 mm 0 W/m2
01:11 14 °C 12.2 °C 1006 hPa SSW 11.3 km/h 19.3 km/h 89 % 0 mm 0 W/m2
01:16 13.9 °C 12.3 °C 1006 hPa SSW 11.3 km/h 19.3 km/h 90 % 0 mm 0 W/m2
01:21 13.9 °C 12.3 °C 1006 hPa SSW 11.3 km/h 19.3 km/h 90 % 0 mm 0 W/m2
01:26 13.8 °C 12.2 °C 1005.6 hPa SSW 11.3 km/h 19.3 km/h 90 % 0 mm 0 W/m2
01:31 13.8 °C 12.2 °C 1005.6 hPa SSW 12.9 km/h 25.7 km/h 90 % 0 mm 0 W/m2
01:36 13.8 °C 12.2 °C 1005.6 hPa SSW 14.5 km/h 30.6 km/h 90 % 0 mm 0 W/m2
01:41 13.8 °C 12.2 °C 1005.6 hPa SW 16.1 km/h 30.6 km/h 90 % 0 mm 0 W/m2
01:46 13.8 °C 12 °C 1005.6 hPa SW 14.5 km/h 22.5 km/h 89 % 0 mm 0 W/m2
01:51 13.7 °C 11.9 °C 1005.6 hPa SW 14.5 km/h 25.7 km/h 89 % 0.25 mm 0 W/m2
01:56 13.7 °C 11.9 °C 1005.6 hPa SW 14.5 km/h 25.7 km/h 89 % 0.25 mm 0 W/m2
02:01 13.6 °C 11.8 °C 1005.6 hPa SW 14.5 km/h 24.1 km/h 89 % 0.25 mm 0 W/m2
02:06 13.6 °C 11.8 °C 1005.6 hPa SW 14.5 km/h 29 km/h 89 % 0.25 mm 0 W/m2
02:11 13.6 °C 11.8 °C 1005.6 hPa SW 16.1 km/h 29 km/h 89 % 0.25 mm 0 W/m2
02:16 13.7 °C 11.7 °C 1005.6 hPa SW 16.1 km/h 29 km/h 88 % 0.25 mm 0 W/m2
02:19 13.7 °C 11.7 °C 1005.6 hPa SW 16.1 km/h 25.7 km/h 88 % 0.25 mm 0 W/m2
02:24 13.7 °C 11.7 °C 1005.3 hPa SW 12.9 km/h 22.5 km/h 88 % 0.25 mm 0 W/m2
02:29 13.7 °C 11.7 °C 1005.3 hPa SW 11.3 km/h 20.9 km/h 88 % 0.25 mm 0 W/m2
02:34 13.7 °C 11.7 °C 1005.3 hPa SW 11.3 km/h 19.3 km/h 88 % 0.25 mm 0 W/m2
02:37 13.6 °C 11.7 °C 1005.3 hPa SW 11.3 km/h 19.3 km/h 88 % 0.25 mm 0 W/m2
02:42 13.6 °C 11.7 °C 1005.3 hPa SW 9.7 km/h 17.7 km/h 88 % 0.25 mm 0 W/m2
02:47 13.6 °C 11.7 °C 1005.3 hPa SW 12.9 km/h 22.5 km/h 88 % 0 mm 0 W/m2
02:48 13.6 °C 11.7 °C 1005.3 hPa SW 12.9 km/h 22.5 km/h 88 % 0 mm 0 W/m2
02:53 13.7 °C 11.7 °C 1005 hPa SW 14.5 km/h 22.5 km/h 88 % 0 mm 0 W/m2
02:58 13.6 °C 11.7 °C 1005 hPa SW 12.9 km/h 20.9 km/h 88 % 0 mm 0 W/m2
03:03 13.6 °C 11.7 °C 1005 hPa SW 12.9 km/h 20.9 km/h 88 % 0 mm 0 W/m2
03:08 13.6 °C 11.7 °C 1005 hPa SW 12.9 km/h 20.9 km/h 88 % 0 mm 0 W/m2
03:13 13.6 °C 11.7 °C 1005 hPa SW 12.9 km/h 19.3 km/h 88 % 0 mm 0 W/m2
03:18 13.6 °C 11.7 °C 1005 hPa SW 12.9 km/h 20.9 km/h 88 % 0 mm 0 W/m2
03:23 13.7 °C 11.7 °C 1005 hPa SW 12.9 km/h 20.9 km/h 88 % 0 mm 0 W/m2
03:28 13.7 °C 11.7 °C 1005 hPa SW 11.3 km/h 19.3 km/h 88 % 0 mm 0 W/m2
03:33 13.8 °C 11.8 °C 1005 hPa SW 12.9 km/h 19.3 km/h 88 % 0 mm 0 W/m2
03:38 13.8 °C 11.8 °C 1005 hPa SW 11.3 km/h 19.3 km/h 88 % 0 mm 0 W/m2
03:43 13.8 °C 11.8 °C 1005 hPa SSW 11.3 km/h 17.7 km/h 88 % 0 mm 0 W/m2
03:48 13.8 °C 11.7 °C 1005 hPa SSW 9.7 km/h 16.1 km/h 87 % 0 mm 0 W/m2
03:53 13.8 °C 11.7 °C 1005 hPa SSW 9.7 km/h 19.3 km/h 87 % 0 mm 0 W/m2
03:58 13.8 °C 11.7 °C 1005 hPa South 11.3 km/h 24.1 km/h 87 % 0 mm 0 W/m2
04:03 13.8 °C 11.7 °C 1005 hPa SSW 11.3 km/h 24.1 km/h 87 % 0 mm 0 W/m2
04:08 13.8 °C 11.7 °C 1005 hPa SSW 11.3 km/h 22.5 km/h 87 % 0 mm 0 W/m2
04:13 13.7 °C 11.6 °C 1005 hPa SSW 11.3 km/h 17.7 km/h 87 % 0 mm 0 W/m2
04:18 13.7 °C 11.6 °C 1004.6 hPa SSW 11.3 km/h 19.3 km/h 87 % 0 mm 0 W/m2
04:20 13.7 °C 11.6 °C 1004.6 hPa SSW 11.3 km/h 19.3 km/h 87 % 0 mm 0 W/m2
04:24 13.7 °C 11.6 °C 1004.6 hPa SSW 9.7 km/h 16.1 km/h 87 % 0 mm 0 W/m2
04:25 13.7 °C 11.6 °C 1004.6 hPa SSW 9.7 km/h 16.1 km/h 87 % 0 mm 0 W/m2
04:27 13.7 °C 11.7 °C 1004.6 hPa SSW 9.7 km/h 20.9 km/h 88 % 0 mm 0 W/m2
04:32 13.7 °C 11.7 °C 1004.6 hPa SSW 11.3 km/h 20.9 km/h 88 % 0 mm 0 W/m2
04:36 13.7 °C 11.7 °C 1004.6 hPa SSW 11.3 km/h 20.9 km/h 88 % 0 mm 0 W/m2
04:41 13.7 °C 11.7 °C 1004.6 hPa SW 9.7 km/h 14.5 km/h 88 % 0 mm 0 W/m2
04:47 13.7 °C 11.7 °C 1004.6 hPa SSW 11.3 km/h 19.3 km/h 88 % 0 mm 0 W/m2
04:51 13.7 °C 11.7 °C 1004.6 hPa SSW 12.9 km/h 19.3 km/h 88 % 0 mm 0 W/m2
04:56 13.7 °C 11.7 °C 1004.3 hPa SW 12.9 km/h 17.7 km/h 88 % 0 mm 0 W/m2
05:01 13.7 °C 11.7 °C 1004.6 hPa SW 12.9 km/h 19.3 km/h 88 % 0 mm 0 W/m2
05:06 13.8 °C 12 °C 1004.3 hPa SW 12.9 km/h 20.9 km/h 89 % 0 mm 0 W/m2
05:11 13.9 °C 11.9 °C 1004.3 hPa SW 12.9 km/h 24.1 km/h 88 % 0 mm 0 W/m2
05:17 13.9 °C 11.9 °C 1004.3 hPa SW 12.9 km/h 25.7 km/h 88 % 0 mm 0 W/m2
05:21 13.9 °C 11.9 °C 1004.3 hPa SW 14.5 km/h 25.7 km/h 88 % 0 mm 0 W/m2
05:26 13.9 °C 12.1 °C 1004.3 hPa SW 12.9 km/h 25.7 km/h 89 % 0 mm 0 W/m2
05:32 13.8 °C 12 °C 1004.3 hPa SW 11.3 km/h 17.7 km/h 89 % 0 mm 0 W/m2
05:37 13.7 °C 11.9 °C 1004.3 hPa WSW 11.3 km/h 17.7 km/h 89 % 0 mm 0 W/m2
05:42 13.7 °C 11.9 °C 1004.3 hPa WSW 12.9 km/h 20.9 km/h 89 % 0 mm 0 W/m2
05:47 13.7 °C 11.9 °C 1004.6 hPa WSW 11.3 km/h 20.9 km/h 89 % 0 mm 0 W/m2
05:52 13.6 °C 11.8 °C 1004.6 hPa WSW 12.9 km/h 29 km/h 89 % 0 mm 0 W/m2
05:57 13.6 °C 11.7 °C 1004.6 hPa WSW 14.5 km/h 29 km/h 88 % 0 mm 5 W/m2
06:02 13.6 °C 11.5 °C 1004.6 hPa WSW 16.1 km/h 29 km/h 87 % 0 mm 9 W/m2
06:07 13.5 °C 11.4 °C 1004.6 hPa WSW 14.5 km/h 29 km/h 87 % 0 mm 9 W/m2
06:12 13.5 °C 11.2 °C 1004.6 hPa WSW 14.5 km/h 22.5 km/h 86 % 0 mm 9 W/m2
06:17 13.5 °C 11.2 °C 1005 hPa WSW 14.5 km/h 24.1 km/h 86 % 0 mm 11 W/m2
06:22 13.5 °C 11.2 °C 1005 hPa WSW 16.1 km/h 30.6 km/h 86 % 0 mm 16 W/m2
06:27 13.6 °C 11.1 °C 1005 hPa WSW 17.7 km/h 33.8 km/h 85 % 0 mm 18 W/m2
06:32 13.6 °C 11.1 °C 1005 hPa WSW 19.3 km/h 35.4 km/h 85 % 0 mm 16 W/m2
06:37 13.6 °C 10.9 °C 1005 hPa WSW 19.3 km/h 35.4 km/h 84 % 0 mm 32 W/m2
06:42 13.6 °C 10.9 °C 1005 hPa WSW 17.7 km/h 29 km/h 84 % 0 mm 37 W/m2
06:47 13.6 °C 10.9 °C 1005 hPa WSW 16.1 km/h 29 km/h 84 % 0 mm 40 W/m2
06:52 13.6 °C 10.9 °C 1005 hPa WSW 16.1 km/h 25.7 km/h 84 % 0 mm 28 W/m2
06:57 13.6 °C 10.9 °C 1005 hPa WSW 16.1 km/h 29 km/h 84 % 0 mm 26 W/m2
07:02 13.6 °C 10.9 °C 1005.3 hPa WSW 14.5 km/h 29 km/h 84 % 0 mm 35 W/m2
07:07 13.6 °C 10.9 °C 1005.3 hPa WSW 16.1 km/h 29 km/h 84 % 0 mm 70 W/m2
07:12 13.6 °C 10.9 °C 1005.3 hPa WSW 16.1 km/h 33.8 km/h 84 % 0 mm 74 W/m2
07:17 13.8 °C 10.9 °C 1005.3 hPa WSW 17.7 km/h 38.6 km/h 83 % 0 mm 176 W/m2
07:22 13.9 °C 11.1 °C 1005.3 hPa WSW 20.9 km/h 38.6 km/h 83 % 0 mm 178 W/m2
07:27 14 °C 11 °C 1005.3 hPa West 20.9 km/h 35.4 km/h 82 % 0 mm 197 W/m2
07:32 14.1 °C 10.9 °C 1005.3 hPa WSW 20.9 km/h 33.8 km/h 81 % 0 mm 176 W/m2
07:37 14.1 °C 10.9 °C 1005.3 hPa WSW 19.3 km/h 33.8 km/h 81 % 0 mm 72 W/m2
07:42 14 °C 10.6 °C 1005.3 hPa West 22.5 km/h 40.2 km/h 80 % 0 mm 227 W/m2
07:47 14 °C 10.6 °C 1005.3 hPa West 25.7 km/h 40.2 km/h 80 % 0 mm 237 W/m2
07:52 14.1 °C 10.9 °C 1005.3 hPa West 24.1 km/h 40.2 km/h 81 % 0 mm 251 W/m2
07:57 14.2 °C 11 °C 1005.3 hPa West 24.1 km/h 38.6 km/h 81 % 0 mm 262 W/m2
08:02 14.2 °C 11 °C 1005.3 hPa West 22.5 km/h 38.6 km/h 81 % 0 mm 272 W/m2
08:07 14.3 °C 10.9 °C 1005.3 hPa West 19.3 km/h 33.8 km/h 80 % 0 mm 309 W/m2
08:12 14.5 °C 11.1 °C 1005.6 hPa West 17.7 km/h 32.2 km/h 80 % 0 mm 315 W/m2
08:17 14.6 °C 11.2 °C 1005.6 hPa WSW 16.1 km/h 32.2 km/h 80 % 0 mm 320 W/m2
08:22 14.8 °C 11.2 °C 1005.6 hPa West 17.7 km/h 30.6 km/h 79 % 0 mm 339 W/m2
08:27 14.8 °C 11 °C 1005.6 hPa West 19.3 km/h 33.8 km/h 78 % 0 mm 334 W/m2
08:32 14.9 °C 10.9 °C 1005.6 hPa West 19.3 km/h 33.8 km/h 77 % 0 mm 350 W/m2
08:37 14.9 °C 10.7 °C 1005.6 hPa West 20.9 km/h 37 km/h 76 % 0 mm 387 W/m2
08:43 15 °C 10.8 °C 1005.6 hPa WSW 20.9 km/h 37 km/h 76 % 0 mm 374 W/m2
08:48 15.1 °C 10.7 °C 1006 hPa West 20.9 km/h 35.4 km/h 75 % 0 mm 334 W/m2
08:53 15.1 °C 10.9 °C 1006 hPa WSW 20.9 km/h 35.4 km/h 76 % 0 mm 411 W/m2
08:58 15.1 °C 10.9 °C 1006 hPa WSW 20.9 km/h 35.4 km/h 76 % 0 mm 434 W/m2
09:03 15.2 °C 10.8 °C 1006 hPa WSW 20.9 km/h 33.8 km/h 75 % 0 mm 506 W/m2
09:08 15.3 °C 10.7 °C 1006 hPa WSW 20.9 km/h 37 km/h 74 % 0 mm 468 W/m2
09:13 15.4 °C 10.6 °C 1006 hPa WSW 22.5 km/h 38.6 km/h 73 % 0 mm 475 W/m2
09:18 15.4 °C 10.6 °C 1006 hPa West 25.7 km/h 41.8 km/h 73 % 0 mm 490 W/m2
09:23 15.6 °C 10.8 °C 1006.3 hPa West 24.1 km/h 41.8 km/h 73 % 0 mm 510 W/m2
09:28 15.8 °C 10.9 °C 1006 hPa WSW 20.9 km/h 37 km/h 73 % 0 mm 541 W/m2
09:33 15.8 °C 10.8 °C 1006.3 hPa WSW 19.3 km/h 37 km/h 72 % 0 mm 527 W/m2
09:38 16.1 °C 11.1 °C 1006.3 hPa WSW 19.3 km/h 30.6 km/h 72 % 0 mm 663 W/m2
09:43 16.2 °C 10.7 °C 1006.3 hPa WSW 20.9 km/h 40.2 km/h 70 % 0 mm 392 W/m2
09:48 16.2 °C 10.7 °C 1006.3 hPa WSW 22.5 km/h 40.2 km/h 70 % 0 mm 619 W/m2
09:53 16.3 °C 10.8 °C 1006.3 hPa WSW 20.9 km/h 37 km/h 70 % 0 mm 659 W/m2
09:58 16.4 °C 10.9 °C 1006.3 hPa WSW 20.9 km/h 37 km/h 70 % 0 mm 610 W/m2
10:03 16.8 °C 11.3 °C 1006.3 hPa WSW 20.9 km/h 38.6 km/h 70 % 0 mm 629 W/m2
10:08 16.7 °C 10.6 °C 1006.3 hPa WSW 20.9 km/h 41.8 km/h 67 % 0 mm 624 W/m2
10:13 16.7 °C 10.3 °C 1006.3 hPa WSW 24.1 km/h 43.5 km/h 66 % 0 mm 633 W/m2
10:18 16.7 °C 10.1 °C 1006.3 hPa WSW 25.7 km/h 43.5 km/h 65 % 0 mm 640 W/m2
10:24 16.6 °C 10.2 °C 1006.3 hPa WSW 25.7 km/h 41.8 km/h 66 % 0 mm 666 W/m2
10:29 16.8 °C 10.8 °C 1006 hPa West 20.9 km/h 37 km/h 68 % 0 mm 710 W/m2
10:34 17 °C 10.4 °C 1006.3 hPa West 19.3 km/h 35.4 km/h 65 % 0 mm 680 W/m2
10:39 17.1 °C 10 °C 1006.3 hPa West 22.5 km/h 35.4 km/h 63 % 0 mm 747 W/m2
10:44 17.1 °C 10 °C 1006.3 hPa West 22.5 km/h 35.4 km/h 63 % 0 mm 671 W/m2
10:49 17.2 °C 10.6 °C 1006.3 hPa West 20.9 km/h 35.4 km/h 65 % 0 mm 779 W/m2
10:54 17.4 °C 10.5 °C 1006 hPa West 19.3 km/h 33.8 km/h 64 % 0 mm 838 W/m2
10:59 17.4 °C 10.5 °C 1006.3 hPa West 19.3 km/h 32.2 km/h 64 % 0 mm 153 W/m2
11:04 17.3 °C 10.2 °C 1006 hPa West 17.7 km/h 32.2 km/h 63 % 0 mm 141 W/m2
11:09 17.1 °C 9.8 °C 1006.3 hPa West 19.3 km/h 40.2 km/h 62 % 0 mm 251 W/m2
11:14 17.2 °C 9.8 °C 1006 hPa WSW 20.9 km/h 40.2 km/h 62 % 0 mm 260 W/m2
11:19 17.5 °C 9.9 °C 1006 hPa WSW 20.9 km/h 37 km/h 61 % 0 mm 898 W/m2
11:24 17.6 °C 10 °C 1006 hPa WSW 20.9 km/h 37 km/h 61 % 0 mm 819 W/m2
11:29 17.7 °C 9.3 °C 1006 hPa WSW 22.5 km/h 41.8 km/h 58 % 0 mm 863 W/m2
11:34 18 °C 9.6 °C 1006 hPa WSW 22.5 km/h 41.8 km/h 58 % 0 mm 851 W/m2
11:39 17.8 °C 9.2 °C 1006 hPa WSW 20.9 km/h 41.8 km/h 57 % 0 mm 308 W/m2
11:44 17.7 °C 8.8 °C 1006 hPa WSW 20.9 km/h 41.8 km/h 56 % 0 mm 220 W/m2
11:49 17.5 °C 9.7 °C 1006 hPa WSW 17.7 km/h 30.6 km/h 60 % 0 mm 283 W/m2
11:54 17.3 °C 9.4 °C 1006 hPa WSW 19.3 km/h 33.8 km/h 60 % 0 mm 285 W/m2
11:59 17.2 °C 9.6 °C 1006 hPa WSW 17.7 km/h 33.8 km/h 61 % 0 mm 891 W/m2
12:04 17.3 °C 9.7 °C 1006 hPa WSW 17.7 km/h 29 km/h 61 % 0 mm 139 W/m2
12:06 17.4 °C 9.8 °C 1006 hPa WSW 17.7 km/h 29 km/h 61 % 0 mm 135 W/m2
12:11 17.3 °C 9.7 °C 1006 hPa WSW 16.1 km/h 25.7 km/h 61 % 0 mm 851 W/m2
12:16 17.5 °C 9.7 °C 1006 hPa WSW 16.1 km/h 30.6 km/h 60 % 0 mm 376 W/m2
12:21 17.4 °C 9.6 °C 1006 hPa WSW 17.7 km/h 32.2 km/h 60 % 0 mm 304 W/m2
12:26 17.3 °C 9.7 °C 1006.3 hPa WSW 19.3 km/h 35.4 km/h 61 % 0 mm 394 W/m2
12:31 17.2 °C 9.4 °C 1006 hPa WSW 20.9 km/h 35.4 km/h 60 % 0 mm 338 W/m2
12:36 17.1 °C 9.8 °C 1006.3 hPa WSW 19.3 km/h 32.2 km/h 62 % 0 mm 401 W/m2
12:41 17.1 °C 9.8 °C 1006.3 hPa WSW 19.3 km/h 35.4 km/h 62 % 0 mm 561 W/m2
12:46 17.3 °C 9.4 °C 1006 hPa WSW 22.5 km/h 41.8 km/h 60 % 0 mm 933 W/m2
12:51 17.4 °C 9.6 °C 1006 hPa SW 24.1 km/h 41.8 km/h 60 % 0 mm 928 W/m2
12:56 17.7 °C 9.6 °C 1006 hPa WSW 24.1 km/h 38.6 km/h 59 % 0 mm 789 W/m2
13:01 17.8 °C 9.4 °C 1006 hPa WSW 22.5 km/h 33.8 km/h 58 % 0 mm 833 W/m2
13:06 18.2 °C 9.6 °C 1006 hPa WSW 20.9 km/h 33.8 km/h 57 % 0 mm 907 W/m2
13:11 18.4 °C 10 °C 1006 hPa WSW 20.9 km/h 37 km/h 58 % 0 mm 554 W/m2
13:16 18.6 °C 10.7 °C 1006 hPa West 19.3 km/h 37 km/h 60 % 0 mm 1102 W/m2
13:21 18.7 °C 10.8 °C 1006.3 hPa WNW 16.1 km/h 25.7 km/h 60 % 0 mm 1102 W/m2
13:26 18.3 °C 10.4 °C 1006.3 hPa WNW 16.1 km/h 25.7 km/h 60 % 0 mm 257 W/m2
13:31 18 °C 10.4 °C 1006 hPa WNW 16.1 km/h 29 km/h 61 % 0 mm 381 W/m2
13:36 17.9 °C 9.5 °C 1006 hPa West 17.7 km/h 38.6 km/h 58 % 0 mm 673 W/m2
13:41 17.7 °C 9.3 °C 1006 hPa West 22.5 km/h 38.6 km/h 58 % 0 mm 221 W/m2
13:46 17.3 °C 9.2 °C 1006.3 hPa West 22.5 km/h 37 km/h 59 % 0 mm 151 W/m2
13:52 16.8 °C 9.2 °C 1006.3 hPa WSW 19.3 km/h 35.4 km/h 61 % 0 mm 107 W/m2
13:57 16.4 °C 9.1 °C 1006.3 hPa WSW 20.9 km/h 35.4 km/h 62 % 0 mm 97 W/m2
14:02 16.1 °C 9.3 °C 1006.3 hPa West 20.9 km/h 35.4 km/h 64 % 0 mm 107 W/m2
14:07 15.7 °C 9.1 °C 1006.7 hPa WSW 17.7 km/h 30.6 km/h 65 % 0 mm 123 W/m2
14:12 15.5 °C 9.6 °C 1006.3 hPa WSW 16.1 km/h 30.6 km/h 68 % 0 mm 313 W/m2
14:17 15.4 °C 9.9 °C 1006.7 hPa WSW 12.9 km/h 29 km/h 70 % 0 mm 232 W/m2
14:22 15.4 °C 9.9 °C 1006.7 hPa WSW 12.9 km/h 25.7 km/h 70 % 0 mm 167 W/m2
14:27 15.3 °C 10.1 °C 1006.3 hPa West 16.1 km/h 29 km/h 71 % 0 mm 149 W/m2
14:32 15.1 °C 9.9 °C 1006.7 hPa West 19.3 km/h 33.8 km/h 71 % 0 mm 120 W/m2
14:37 14.8 °C 9.6 °C 1006.3 hPa West 19.3 km/h 33.8 km/h 71 % 0 mm 83 W/m2
14:42 14.6 °C 9.6 °C 1006.3 hPa West 16.1 km/h 33.8 km/h 72 % 0 mm 84 W/m2
14:47 14.5 °C 9.5 °C 1006.3 hPa West 16.1 km/h 29 km/h 72 % 0 mm 162 W/m2
14:52 14.5 °C 9.7 °C 1006.3 hPa West 12.9 km/h 22.5 km/h 73 % 0 mm 220 W/m2
14:57 14.6 °C 9.8 °C 1006.7 hPa West 12.9 km/h 22.5 km/h 73 % 0 mm 148 W/m2
15:02 14.6 °C 9.8 °C 1006.7 hPa WSW 12.9 km/h 22.5 km/h 73 % 0 mm 107 W/m2
15:07 14.6 °C 9.6 °C 1006.7 hPa WSW 11.3 km/h 20.9 km/h 72 % 0 mm 77 W/m2
15:12 14.6 °C 9.4 °C 1006.7 hPa WSW 12.9 km/h 22.5 km/h 71 % 0 mm 91 W/m2
15:17 14.5 °C 9.7 °C 1006.7 hPa WSW 12.9 km/h 22.5 km/h 73 % 0 mm 192 W/m2
15:22 14.4 °C 9.6 °C 1006.7 hPa SW 12.9 km/h 22.5 km/h 73 % 0 mm 387 W/m2
15:27 14.6 °C 10.2 °C 1006.3 hPa SW 14.5 km/h 22.5 km/h 75 % 0 mm 643 W/m2
15:32 15 °C 10.2 °C 1006.3 hPa SW 12.9 km/h 22.5 km/h 73 % 0 mm 810 W/m2
15:37 15.4 °C 10.4 °C 1006.3 hPa SW 12.9 km/h 22.5 km/h 72 % 0 mm 782 W/m2
15:42 16.1 °C 10.6 °C 1006.3 hPa SW 11.3 km/h 19.3 km/h 70 % 0 mm 800 W/m2
15:47 16.7 °C 10.8 °C 1006.3 hPa WSW 11.3 km/h 19.3 km/h 68 % 0 mm 733 W/m2
15:52 17.3 °C 10.7 °C 1006.3 hPa WSW 11.3 km/h 17.7 km/h 65 % 0 mm 677 W/m2
15:57 17.5 °C 10.1 °C 1006.3 hPa WSW 14.5 km/h 33.8 km/h 62 % 0 mm 276 W/m2
16:02 17.4 °C 9.8 °C 1006.3 hPa West 16.1 km/h 33.8 km/h 61 % 0 mm 225 W/m2
16:07 17.4 °C 9.8 °C 1006.3 hPa West 16.1 km/h 32.2 km/h 61 % 0 mm 209 W/m2
16:12 17.1 °C 9.8 °C 1006.3 hPa West 19.3 km/h 33.8 km/h 62 % 0 mm 271 W/m2
16:18 16.8 °C 9.5 °C 1006.3 hPa West 19.3 km/h 33.8 km/h 62 % 0 mm 216 W/m2
16:22 16.7 °C 9.8 °C 1006.3 hPa West 16.1 km/h 30.6 km/h 64 % 0 mm 355 W/m2
16:28 16.7 °C 9.6 °C 1006.3 hPa West 16.1 km/h 29 km/h 63 % 0 mm 348 W/m2
16:33 16.7 °C 9.8 °C 1006.3 hPa WSW 16.1 km/h 29 km/h 64 % 0 mm 225 W/m2
16:38 16.6 °C 9.8 °C 1006.3 hPa WSW 16.1 km/h 25.7 km/h 64 % 0 mm 141 W/m2
16:43 16.6 °C 10 °C 1006.3 hPa WSW 12.9 km/h 25.7 km/h 65 % 0 mm 244 W/m2
16:48 16.8 °C 10.4 °C 1006.3 hPa West 14.5 km/h 30.6 km/h 66 % 0 mm 612 W/m2
16:53 17.2 °C 10.3 °C 1006.3 hPa West 16.1 km/h 30.6 km/h 64 % 0 mm 566 W/m2
16:58 17.6 °C 10.4 °C 1006.3 hPa West 14.5 km/h 25.7 km/h 63 % 0 mm 529 W/m2
17:03 17.8 °C 9.9 °C 1006.3 hPa West 16.1 km/h 25.7 km/h 60 % 0 mm 137 W/m2
17:05 17.8 °C 9.9 °C 1006 hPa West 16.1 km/h 25.7 km/h 60 % 0 mm 482 W/m2
17:10 17.7 °C 9.6 °C 1006 hPa WSW 16.1 km/h 25.7 km/h 59 % 0 mm 526 W/m2
17:15 17.9 °C 9.5 °C 1006.3 hPa West 19.3 km/h 35.4 km/h 58 % 0 mm 336 W/m2
17:20 17.6 °C 9.5 °C 1006.3 hPa West 20.9 km/h 35.4 km/h 59 % 0 mm 146 W/m2
17:25 17.2 °C 9.4 °C 1006 hPa West 20.9 km/h 33.8 km/h 60 % 0 mm 151 W/m2
17:30 16.9 °C 9.3 °C 1006.3 hPa West 20.9 km/h 33.8 km/h 61 % 0 mm 100 W/m2
17:35 16.7 °C 9.6 °C 1006.3 hPa West 17.7 km/h 30.6 km/h 63 % 0 mm 128 W/m2
17:40 16.7 °C 9.8 °C 1006.3 hPa West 16.1 km/h 25.7 km/h 64 % 0 mm 325 W/m2
17:45 16.6 °C 9.8 °C 1006.3 hPa West 17.7 km/h 30.6 km/h 64 % 0 mm 236 W/m2
17:50 16.7 °C 10.1 °C 1006.3 hPa West 16.1 km/h 30.6 km/h 65 % 0 mm 401 W/m2
17:55 16.9 °C 10.1 °C 1006.3 hPa West 14.5 km/h 29 km/h 64 % 0 mm 79 W/m2
18:00 16.9 °C 9.8 °C 1006.3 hPa West 14.5 km/h 24.1 km/h 63 % 0 mm 374 W/m2
18:05 16.8 °C 9.7 °C 1006.3 hPa West 14.5 km/h 24.1 km/h 63 % 0 mm 88 W/m2
18:10 16.6 °C 9.8 °C 1006.3 hPa West 16.1 km/h 24.1 km/h 64 % 0 mm 134 W/m2
18:15 16.4 °C 9.6 °C 1006.3 hPa West 14.5 km/h 25.7 km/h 64 % 0 mm 165 W/m2
18:20 16.4 °C 9.6 °C 1006.3 hPa West 14.5 km/h 29 km/h 64 % 0 mm 109 W/m2
18:25 16.3 °C 9.7 °C 1006.3 hPa West 14.5 km/h 29 km/h 65 % 0 mm 288 W/m2
18:30 16.3 °C 9.9 °C 1006.3 hPa West 14.5 km/h 24.1 km/h 66 % 0 mm 162 W/m2
18:35 16.2 °C 10.1 °C 1006.3 hPa WSW 12.9 km/h 24.1 km/h 67 % 0 mm 88 W/m2
18:40 16.1 °C 10.2 °C 1006.3 hPa West 9.7 km/h 17.7 km/h 68 % 0 mm 102 W/m2
18:45 16.2 °C 10.3 °C 1006.3 hPa West 9.7 km/h 17.7 km/h 68 % 0 mm 199 W/m2
18:50 16.3 °C 10.4 °C 1006.7 hPa West 9.7 km/h 17.7 km/h 68 % 0 mm 178 W/m2
18:55 16.4 °C 10.5 °C 1006.7 hPa West 9.7 km/h 14.5 km/h 68 % 0 mm 160 W/m2
19:00 16.5 °C 10.6 °C 1006.7 hPa West 8 km/h 16.1 km/h 68 % 0 mm 63 W/m2
19:05 16.4 °C 10.3 °C 1006.7 hPa West 9.7 km/h 17.7 km/h 67 % 0 mm 35 W/m2
19:10 16.2 °C 10.3 °C 1006.7 hPa WSW 9.7 km/h 17.7 km/h 68 % 0 mm 37 W/m2
19:15 16.1 °C 10.2 °C 1006.7 hPa West 11.3 km/h 16.1 km/h 68 % 0 mm 65 W/m2
19:20 15.8 °C 10.1 °C 1006.7 hPa West 9.7 km/h 16.1 km/h 69 % 0 mm 37 W/m2
19:25 15.7 °C 10.2 °C 1006.7 hPa West 8 km/h 14.5 km/h 70 % 0 mm 21 W/m2
19:30 15.6 °C 10.3 °C 1006.7 hPa WSW 6.4 km/h 12.9 km/h 71 % 0 mm 19 W/m2
19:35 15.4 °C 10.4 °C 1006.7 hPa WSW 4.8 km/h 11.3 km/h 72 % 0 mm 19 W/m2
19:40 15.2 °C 10.4 °C 1006.7 hPa WSW 4.8 km/h 8 km/h 73 % 0 mm 19 W/m2
19:45 15.1 °C 10.3 °C 1006.7 hPa WSW 3.2 km/h 8 km/h 73 % 0 mm 16 W/m2
19:50 15 °C 10.4 °C 1006.3 hPa WSW 3.2 km/h 8 km/h 74 % 0 mm 14 W/m2
19:55 14.8 °C 10.4 °C 1006.7 hPa SW 4.8 km/h 9.7 km/h 75 % 0 mm 14 W/m2
20:00 14.6 °C 10.6 °C 1006.7 hPa SW 6.4 km/h 9.7 km/h 77 % 0 mm 14 W/m2
20:05 14.4 °C 10.4 °C 1006.7 hPa SW 6.4 km/h 9.7 km/h 77 % 0 mm 12 W/m2
20:10 14.2 °C 10.4 °C 1007 hPa SW 6.4 km/h 16.1 km/h 78 % 0 mm 9 W/m2
20:11 14.2 °C 10.4 °C 1007 hPa SW 6.4 km/h 16.1 km/h 78 % 0 mm 9 W/m2
20:16 14.1 °C 10.1 °C 1007 hPa WSW 6.4 km/h 16.1 km/h 77 % 0 mm 7 W/m2
20:21 14 °C 10.1 °C 1007 hPa WSW 4.8 km/h 9.7 km/h 77 % 0 mm 7 W/m2
20:26 13.9 °C 9.9 °C 1007 hPa WSW 6.4 km/h 17.7 km/h 77 % 0 mm 5 W/m2
20:31 13.8 °C 9.7 °C 1007 hPa WSW 9.7 km/h 17.7 km/h 76 % 0 mm 0 W/m2
20:36 13.7 °C 9.2 °C 1007 hPa WSW 11.3 km/h 19.3 km/h 74 % 0 mm 0 W/m2
20:41 13.7 °C 9.2 °C 1007 hPa WSW 11.3 km/h 19.3 km/h 74 % 0 mm 0 W/m2
20:46 13.6 °C 9.1 °C 1007.3 hPa WSW 9.7 km/h 17.7 km/h 74 % 0 mm 0 W/m2
20:51 13.5 °C 8.9 °C 1007 hPa WSW 8 km/h 14.5 km/h 74 % 0 mm 0 W/m2
20:56 13.4 °C 9.1 °C 1007 hPa WSW 8 km/h 12.9 km/h 75 % 0 mm 0 W/m2
21:01 13.3 °C 8.9 °C 1007 hPa WSW 6.4 km/h 12.9 km/h 75 % 0 mm 0 W/m2
21:06 13.2 °C 9.1 °C 1007.3 hPa WSW 4.8 km/h 9.7 km/h 76 % 0 mm 0 W/m2
21:11 13.1 °C 8.9 °C 1007.3 hPa WSW 6.4 km/h 9.7 km/h 76 % 0 mm 0 W/m2
21:16 13 °C 9.1 °C 1007.3 hPa WSW 8 km/h 11.3 km/h 77 % 0 mm 0 W/m2
21:21 12.9 °C 9.2 °C 1007.3 hPa WSW 8 km/h 11.3 km/h 78 % 0 mm 0 W/m2
21:26 12.8 °C 9.1 °C 1007.3 hPa WSW 6.4 km/h 11.3 km/h 78 % 0 mm 0 W/m2
21:31 12.7 °C 8.9 °C 1007.3 hPa WSW 3.2 km/h 8 km/h 78 % 0 mm 0 W/m2
21:36 12.7 °C 9.3 °C 1007.3 hPa WSW 1.6 km/h 8 km/h 80 % 0 mm 0 W/m2
21:41 12.6 °C 9.2 °C 1007.3 hPa Calm   4.8 km/h 80 % 0 mm 0 W/m2
21:46 12.4 °C 9.1 °C 1007.3 hPa Calm   4.8 km/h 80 % 0 mm 0 W/m2
21:51 12.3 °C 8.9 °C 1007.3 hPa Calm   1.6 km/h 80 % 0 mm 0 W/m2
21:56 12.1 °C 8.9 °C 1007.3 hPa Calm   6.4 km/h 81 % 0 mm 0 W/m2
22:01 12 °C 8.8 °C 1007.3 hPa Calm   6.4 km/h 81 % 0 mm 0 W/m2
22:07 11.8 °C 8.8 °C 1007.7 hPa Calm   3.2 km/h 82 % 0 mm 0 W/m2
22:12 11.7 °C 8.7 °C 1007.3 hPa Calm   3.2 km/h 82 % 0 mm 0 W/m2
22:17 11.6 °C 8.8 °C 1007.7 hPa Calm   6.4 km/h 83 % 0 mm 0 W/m2
22:22 11.6 °C 8.8 °C 1007.7 hPa Calm   6.4 km/h 83 % 0 mm 0 W/m2
22:27 11.5 °C 8.9 °C 1007.7 hPa Calm   4.8 km/h 84 % 0 mm 0 W/m2
22:32 11.4 °C 8.8 °C 1007.7 hPa Calm   3.2 km/h 84 % 0 mm 0 W/m2
22:37 11.3 °C 8.7 °C 1007.3 hPa Calm     84 % 0 mm 0 W/m2
22:42 11.3 °C 8.9 °C 1007.7 hPa Calm   1.6 km/h 85 % 0 mm 0 W/m2
22:47 11.2 °C 8.8 °C 1007.7 hPa Calm   1.6 km/h 85 % 0 mm 0 W/m2
22:52 11.1 °C 8.7 °C 1007.7 hPa Calm   6.4 km/h 85 % 0 mm 0 W/m2
22:57 11 °C 8.7 °C 1007.7 hPa Calm   6.4 km/h 86 % 0 mm 0 W/m2
23:02 10.9 °C 8.7 °C 1008 hPa Calm   3.2 km/h 86 % 0 mm 0 W/m2
23:07 10.9 °C 8.8 °C 1007.7 hPa Calm   6.4 km/h 87 % 0 mm 0 W/m2
23:12 10.8 °C 8.7 °C 1008 hPa WSW 3.2 km/h 11.3 km/h 87 % 0 mm 0 W/m2
23:17 10.8 °C 8.7 °C 1008 hPa West 6.4 km/h 14.5 km/h 87 % 0 mm 0 W/m2
23:22 10.8 °C 8.9 °C 1008 hPa West 9.7 km/h 19.3 km/h 88 % 0 mm 0 W/m2
23:27 11 °C 9.1 °C 1008 hPa West 12.9 km/h 22.5 km/h 88 % 0 mm 0 W/m2
23:32 11.1 °C 9 °C 1008 hPa West 12.9 km/h 22.5 km/h 87 % 0 mm 0 W/m2
23:37 11.2 °C 8.9 °C 1008 hPa West 12.9 km/h 24.1 km/h 86 % 0 mm 0 W/m2
23:42 11.4 °C 9.2 °C 1008 hPa West 16.1 km/h 25.7 km/h 86 % 0 mm 0 W/m2
23:47 11.5 °C 9.1 °C 1008 hPa WSW 16.1 km/h 25.7 km/h 85 % 0 mm 0 W/m2
23:52 11.6 °C 9 °C 1008 hPa WSW 14.5 km/h 25.7 km/h 84 % 0 mm 0 W/m2
23:57 11.6 °C 9 °C 1008 hPa WSW 14.5 km/h 22.5 km/h 84 % 0 mm 0 W/m2
Delerius-Weather
Compliments of Weather Underground - 2.25 mb

Data updates at regular intervals.